Time;durP1;ratioP1;P1;durP2;ratioP2;P2;SDS_P1;SDS_P2;PMS_P1;PMS_P2;Temp;Humidity;BMP_temperature;BMP_pressure;BME280_temperature;BME280_humidity;BME280_pressure;Samples;Min_cycle;Max_cycle;Signal;HPM_P1;HPM_P2
2023/01/12 00:01:36;;;;;;;23.23;3.23;;;;;;;16.29;58.81;100911.72;5047556;28;20025;-69
2023/01/12 00:04:02;;;;;;;21.20;4.07;;;;;;;15.92;60.30;100910.25;5044529;28;20465;-69
2023/01/12 00:06:31;;;;;;;22.57;3.97;;;;;;;14.70;64.33;100917.19;5044950;28;20044;-69
2023/01/12 00:08:57;;;;;;;22.83;3.37;;;;;;;15.39;63.70;100890.72;5043480;28;20048;-69
2023/01/12 00:11:23;;;;;;;37.03;4.73;;;;;;;15.93;61.18;100896.19;5045222;28;20032;-69
2023/01/12 00:13:48;;;;;;;26.90;3.53;;;;;;;15.11;64.30;100890.63;5064168;28;20036;-69
2023/01/12 00:16:36;;;;;;;33.80;4.07;;;;;;;16.37;61.12;100875.41;5034722;28;20044;-69
2023/01/12 00:19:10;;;;;;;26.07;5.57;;;;;;;16.26;59.26;100878.41;5046749;28;20083;-69
2023/01/12 00:24:38;;;;;;;31.37;4.63;;;;;;;14.83;65.20;100880.88;5048757;28;20086;-69
2023/01/12 00:27:15;;;;;;;36.77;5.83;;;;;;;16.45;61.87;100873.38;5044438;28;20482;-69
2023/01/12 00:29:41;;;;;;;37.53;4.53;;;;;;;16.30;61.20;100863.34;5035048;28;20032;-69
2023/01/12 00:32:10;;;;;;;41.00;4.87;;;;;;;15.94;64.92;100861.00;5046041;28;20025;-69
2023/01/12 00:34:35;;;;;;;36.57;5.60;;;;;;;15.54;67.61;100857.78;5044036;28;20420;-69
2023/01/12 00:37:01;;;;;;;37.97;7.17;;;;;;;16.25;65.07;100862.63;5046166;28;20025;-69
2023/01/12 00:39:26;;;;;;;39.83;5.47;;;;;;;15.74;67.56;100848.41;5048455;28;20025;-69
2023/01/12 00:47:20;;;;;;;46.67;5.90;;;;;;;16.59;63.17;100837.75;5045726;28;20113;-69
2023/01/12 00:49:46;;;;;;;51.57;6.00;;;;;;;16.31;64.04;100843.97;5049001;28;20115;-69
2023/01/12 00:52:15;;;;;;;45.73;6.17;;;;;;;15.98;66.22;100831.00;5049387;28;20029;-69
2023/01/12 00:54:41;;;;;;;57.93;6.60;;;;;;;15.76;67.51;100826.38;5047355;28;20128;-69
2023/01/12 00:57:08;;;;;;;65.33;7.10;;;;;;;15.96;65.45;100821.41;5049264;28;20482;-69
2023/01/12 00:59:33;;;;;;;56.47;7.47;;;;;;;15.85;67.32;100809.44;5048705;28;20070;-69
2023/01/12 01:01:59;;;;;;;51.67;7.53;;;;;;;16.37;63.79;100812.09;5048250;28;20029;-69
2023/01/12 01:04:24;;;;;;;54.13;7.27;;;;;;;15.95;65.04;100804.75;5045684;28;20028;-69
2023/01/12 01:06:51;;;;;;;52.87;7.80;;;;;;;17.19;61.04;100797.78;5048018;28;20037;-69
2023/01/12 01:09:16;;;;;;;57.77;6.90;;;;;;;16.22;65.30;100804.72;5047928;28;20455;-69
2023/01/12 01:11:42;;;;;;;53.07;7.33;;;;;;;16.69;63.18;100799.56;5043290;28;20393;-69
2023/01/12 01:14:07;;;;;;;42.90;6.30;;;;;;;15.78;68.01;100797.34;5047814;28;20028;-69
2023/01/12 01:16:33;;;;;;;45.93;5.63;;;;;;;16.35;68.14;100792.84;5047966;28;20020;-69
2023/01/12 01:18:59;;;;;;;34.60;5.33;;;;;;;16.75;62.97;100794.06;5047066;28;20067;-69
2023/01/12 01:21:25;;;;;;;50.90;7.37;;;;;;;15.48;68.27;100792.13;5045422;28;20024;-69
2023/01/12 01:23:52;;;;;;;39.93;6.33;;;;;;;15.83;67.71;100799.88;5049451;28;20032;-69
2023/01/12 01:26:20;;;;;;;36.53;6.80;;;;;;;15.80;65.69;100789.41;5045958;28;20025;-69
2023/01/12 01:28:46;;;;;;;36.23;5.60;;;;;;;16.17;65.18;100786.44;5045885;28;20112;-69
2023/01/12 01:31:18;;;;;;;33.13;6.10;;;;;;;16.18;66.08;100776.72;5062922;28;20104;-69
2023/01/12 01:33:44;;;;;;;34.70;5.93;;;;;;;15.62;69.62;100789.06;5045371;28;20060;-69
2023/01/12 01:36:10;;;;;;;36.73;5.67;;;;;;;16.29;68.12;100779.84;5043671;28;20024;-67
2023/01/12 01:38:36;;;;;;;23.93;4.37;;;;;;;15.28;73.29;100782.22;5047060;28;20111;-69
2023/01/12 01:41:03;;;;;;;30.53;5.70;;;;;;;15.41;74.11;100775.66;5045102;28;20162;-69
2023/01/12 01:43:46;;;;;;;32.33;5.03;;;;;;;14.89;73.94;100774.56;5042899;28;20021;-69
2023/01/12 01:46:24;;;;;;;20.60;4.33;;;;;;;15.57;72.89;100775.19;5058705;28;20029;-69
2023/01/12 01:48:50;;;;;;;19.83;4.07;;;;;;;15.38;72.24;100770.47;5049237;28;20031;-69
2023/01/12 01:51:16;;;;;;;22.33;3.20;;;;;;;15.08;72.03;100772.28;5047708;28;20391;-69
2023/01/12 01:53:44;;;;;;;19.67;3.50;;;;;;;15.87;69.50;100776.00;5037034;28;20449;-69
2023/01/12 01:56:16;;;;;;;21.93;2.87;;;;;;;15.68;67.53;100765.16;5047965;28;20017;-69
2023/01/12 01:59:05;;;;;;;20.00;2.77;;;;;;;16.09;65.38;100755.03;5047122;28;20029;-68
2023/01/12 02:01:31;;;;;;;16.00;3.57;;;;;;;15.43;70.92;100755.41;5043546;28;20101;-68
2023/01/12 02:03:59;;;;;;;18.80;2.90;;;;;;;16.66;63.38;100744.25;5046900;28;20017;-68
2023/01/12 02:06:26;;;;;;;20.63;4.17;;;;;;;16.70;62.52;100739.72;5044001;28;20468;-68
2023/01/12 02:09:06;;;;;;;15.80;3.33;;;;;;;15.30;67.52;100725.09;5048003;28;20116;-68
2023/01/12 02:17:09;;;;;;;15.50;2.47;;;;;;;15.63;67.12;100714.38;5053063;28;20071;-68
2023/01/12 02:20:04;;;;;;;18.90;2.77;;;;;;;16.28;64.99;100715.72;5051387;28;20425;-68
2023/01/12 02:22:48;;;;;;;17.87;2.87;;;;;;;16.54;63.03;100686.66;5078220;28;20037;-68
2023/01/12 02:25:26;;;;;;;21.83;3.40;;;;;;;15.89;67.68;100699.50;5051118;28;20029;-68
2023/01/12 02:28:33;;;;;;;17.00;2.60;;;;;;;15.22;73.26;100692.88;5047047;28;20048;-68
2023/01/12 02:31:35;;;;;;;19.63;3.07;;;;;;;16.03;70.53;100692.00;5049814;28;20024;-68
2023/01/12 02:34:28;;;;;;;19.80;3.72;;;;;;;16.18;68.17;100695.84;5049895;28;20029;-68
2023/01/12 02:36:57;;;;;;;18.10;3.28;;;;;;;15.67;69.70;100679.09;5047384;28;20056;-68
2023/01/12 02:39:32;;;;;;;26.63;4.20;;;;;;;15.94;69.38;100679.97;5047103;28;20036;-68
2023/01/12 02:44:49;;;;;;;26.73;3.47;;;;;;;14.71;71.09;100663.72;5049676;28;20117;-67
2023/01/12 02:47:40;;;;;;;25.93;3.57;;;;;;;15.23;73.11;100673.53;5050718;28;20423;-68
2023/01/12 02:50:12;;;;;;;21.67;3.00;;;;;;;16.17;68.40;100648.44;5047015;28;20392;-68
2023/01/12 02:52:41;;;;;;;18.92;3.05;;;;;;;15.54;71.59;100640.94;5049882;28;20028;-68
2023/01/12 02:55:07;;;;;;;30.90;4.33;;;;;;;16.62;64.35;100615.97;5048819;28;20055;-68
2023/01/12 02:57:34;;;;;;;31.40;3.60;;;;;;;15.48;71.44;100606.88;5048435;28;20036;-67
2023/01/12 03:00:01;;;;;;;20.50;3.30;;;;;;;15.93;68.65;100606.22;5048512;28;20029;-68
2023/01/12 03:02:28;;;;;;;27.67;3.13;;;;;;;16.53;67.08;100608.44;5064485;28;20031;-67
2023/01/12 03:04:54;;;;;;;27.77;3.63;;;;;;;15.65;69.11;100595.75;5048943;28;20041;-68
2023/01/12 03:07:34;;;;;;;24.20;3.93;;;;;;;15.55;71.13;100595.22;5046829;28;20029;-68
2023/01/12 03:10:41;;;;;;;27.67;4.67;;;;;;;15.12;74.88;100599.31;5051910;28;20043;-68
2023/01/12 03:13:14;;;;;;;20.87;3.90;;;;;;;15.10;73.79;100579.16;5025173;28;20036;-67
2023/01/12 03:15:47;;;;;;;17.17;3.20;;;;;;;15.03;77.16;100580.28;5047333;28;20040;-67
2023/01/12 03:18:21;;;;;;;26.13;4.30;;;;;;;15.92;72.28;100563.22;5045471;28;20074;-67
2023/01/12 03:20:55;;;;;;;16.10;3.97;;;;;;;15.47;74.53;100539.31;5078637;28;20098;-68
2023/01/12 03:23:26;;;;;;;16.53;3.67;;;;;;;15.17;73.89;100536.84;5050058;28;20023;-68
2023/01/12 03:25:56;;;;;;;18.30;4.80;;;;;;;15.93;70.24;100529.78;5047943;28;20111;-68
2023/01/12 03:28:29;;;;;;;16.10;3.47;;;;;;;15.55;67.86;100524.09;5043932;28;20035;-67
2023/01/12 03:30:59;;;;;;;17.40;4.25;;;;;;;14.75;74.70;100493.47;5040830;28;20032;-68
2023/01/12 03:33:25;;;;;;;14.87;3.67;;;;;;;15.55;70.19;100496.00;5047627;28;20391;-67
2023/01/12 03:36:11;;;;;;;13.30;3.63;;;;;;;14.41;75.27;100458.56;5042993;28;20033;-68
2023/01/12 03:38:59;;;;;;;19.23;3.93;;;;;;;14.78;72.12;100460.94;5045895;28;20116;-68
2023/01/12 03:41:44;;;;;;;15.83;3.87;;;;;;;14.88;72.16;100433.44;5048802;28;20040;-68
2023/01/12 03:44:20;;;;;;;9.67;2.80;;;;;;;14.67;74.21;100448.13;5063977;28;20025;-68
2023/01/12 03:46:54;;;;;;;17.90;3.00;;;;;;;15.08;72.39;100437.97;5049826;28;20061;-67
2023/01/12 03:49:44;;;;;;;17.87;2.87;;;;;;;15.27;71.00;100411.88;5040793;28;20091;-67
2023/01/12 03:52:11;;;;;;;14.43;2.43;;;;;;;15.00;70.89;100416.34;5048700;28;20037;-68
2023/01/12 03:54:39;;;;;;;13.23;3.20;;;;;;;14.71;76.49;100413.81;5048007;28;20029;-67
2023/01/12 03:57:07;;;;;;;12.50;3.60;;;;;;;14.86;73.70;100403.66;5046295;28;20028;-67
2023/01/12 03:59:33;;;;;;;13.50;3.03;;;;;;;15.12;74.44;100407.16;5039357;28;20034;-68
2023/01/12 04:01:59;;;;;;;15.70;2.83;;;;;;;14.93;74.96;100402.53;5049381;28;20078;-67
2023/01/12 04:04:24;;;;;;;13.10;2.90;;;;;;;14.53;74.77;100395.97;5043959;28;20158;-68
2023/01/12 04:06:49;;;;;;;10.23;3.07;;;;;;;15.74;70.62;100389.94;5059639;28;20040;-68
2023/01/12 04:09:15;;;;;;;11.37;2.23;;;;;;;14.12;78.76;100385.03;5047221;28;20025;-67
2023/01/12 04:14:24;;;;;;;12.97;3.03;;;;;;;14.54;78.39;100369.63;5049025;28;20128;-68
2023/01/12 04:16:50;;;;;;;12.40;2.47;;;;;;;15.01;73.47;100366.28;5049119;28;20100;-67
2023/01/12 04:19:15;;;;;;;9.57;2.53;;;;;;;15.21;73.22;100375.25;5048667;28;20024;-68
2023/01/12 04:24:25;;;;;;;8.73;2.37;;;;;;;14.71;78.90;100361.19;5049236;28;20122;-68
2023/01/12 04:26:50;;;;;;;7.23;2.00;;;;;;;15.11;74.42;100374.69;5043338;28;20477;-67
2023/01/12 04:29:15;;;;;;;12.97;2.00;;;;;;;14.21;80.16;100367.19;5045584;28;20043;-67
2023/01/12 04:31:41;;;;;;;9.23;2.23;;;;;;;14.52;77.97;100349.53;5046777;28;20021;-67
2023/01/12 04:34:07;;;;;;;13.37;2.33;;;;;;;14.90;74.01;100347.38;5042487;28;20389;-67
2023/01/12 04:36:32;;;;;;;12.53;1.90;;;;;;;14.42;79.49;100338.47;5044442;28;20152;-67
2023/01/12 04:38:57;;;;;;;4.97;1.70;;;;;;;14.12;78.75;100319.34;5045705;28;20032;-67
2023/01/12 04:41:23;;;;;;;5.77;1.67;;;;;;;14.00;79.77;100352.09;5046723;28;20878;-67
2023/01/12 04:43:48;;;;;;;15.87;2.13;;;;;;;14.17;80.68;100348.97;5041820;28;20021;-67
2023/01/12 04:46:14;;;;;;;10.53;1.97;;;;;;;15.10;75.57;100350.16;5022706;28;20116;-67
2023/01/12 04:48:42;;;;;;;6.77;2.00;;;;;;;14.45;77.99;100332.25;5036828;28;20025;-67
2023/01/12 04:51:08;;;;;;;11.33;2.50;;;;;;;14.57;80.63;100316.06;5071616;28;20073;-67
2023/01/12 04:53:34;;;;;;;8.70;1.80;;;;;;;14.48;79.35;100326.88;5039596;28;20831;-67
2023/01/12 04:56:03;;;;;;;4.07;1.53;;;;;;;13.72;81.12;100327.59;5056582;28;20567;-67
2023/01/12 04:58:29;;;;;;;11.10;1.97;;;;;;;13.96;87.25;100325.09;5042900;28;20024;-67
2023/01/12 05:00:54;;;;;;;10.37;2.50;;;;;;;14.58;82.20;100302.00;5034763;28;20032;-67
2023/01/12 05:03:20;;;;;;;19.07;3.07;;;;;;;14.52;79.76;100303.09;5035414;28;20019;-67
2023/01/12 05:05:46;;;;;;;7.17;1.83;;;;;;;13.86;84.33;100324.53;5051584;28;20496;-67
2023/01/12 05:10:58;;;;;;;4.03;1.80;;;;;;;14.19;85.28;100321.72;5045697;28;20097;-67
2023/01/12 05:13:26;;;;;;;6.00;1.60;;;;;;;14.46;81.99;100329.56;5043797;28;20120;-67
2023/01/12 05:15:53;;;;;;;10.37;1.80;;;;;;;14.73;81.78;100324.31;5040055;28;20413;-67
2023/01/12 05:18:18;;;;;;;6.97;1.93;;;;;;;14.66;82.81;100326.28;5039249;28;20031;-67
2023/01/12 05:20:44;;;;;;;9.73;1.50;;;;;;;14.96;80.22;100327.88;5042002;28;20489;-67
2023/01/12 05:23:09;;;;;;;9.60;1.40;;;;;;;14.91;81.27;100335.94;5037187;28;20457;-67
2023/01/12 05:25:35;;;;;;;6.53;1.37;;;;;;;14.79;81.67;100336.38;5032322;28;20446;-67
2023/01/12 05:28:00;;;;;;;7.60;1.00;;;;;;;14.53;79.16;100324.97;5040536;28;20481;-67
2023/01/12 05:30:27;;;;;;;5.60;1.10;;;;;;;14.88;81.75;100315.88;5041142;28;20497;-67
2023/01/12 05:32:52;;;;;;;4.27;1.60;;;;;;;14.71;86.86;100337.53;5041325;28;20016;-67
2023/01/12 05:35:18;;;;;;;5.33;1.20;;;;;;;15.40;76.83;100318.34;5035009;28;20448;-67
2023/01/12 05:37:44;;;;;;;6.00;0.80;;;;;;;14.90;76.56;100342.13;5041143;28;20072;-67
2023/01/12 05:40:10;;;;;;;2.53;0.97;;;;;;;15.03;76.33;100322.34;5042153;28;20123;-67
2023/01/12 05:45:19;;;;;;;4.87;1.00;;;;;;;15.10;76.17;100323.84;5046274;28;20562;-67
2023/01/12 05:47:45;;;;;;;6.07;1.00;;;;;;;14.64;80.39;100320.22;5041507;28;20017;-66
2023/01/12 05:50:10;;;;;;;4.63;1.53;;;;;;;16.07;77.06;100308.72;5044059;28;20031;-67
2023/01/12 05:52:35;;;;;;;3.50;0.93;;;;;;;15.94;71.16;100315.41;5045791;28;20484;-67
2023/01/12 05:55:01;;;;;;;4.67;1.03;;;;;;;14.81;80.55;100321.38;5042687;28;20466;-67
2023/01/12 05:57:30;;;;;;;3.00;0.63;;;;;;;14.99;84.76;100317.22;5044970;28;20108;-67
2023/01/12 05:59:55;;;;;;;3.27;1.10;;;;;;;15.49;82.85;100305.72;5033344;28;20033;-67
2023/01/12 06:02:21;;;;;;;1.10;1.03;;;;;;;15.45;81.48;100294.44;5045108;28;20051;-67
2023/01/12 06:04:47;;;;;;;3.53;0.70;;;;;;;15.08;85.48;100293.22;5041359;28;20033;-68
2023/01/12 06:07:13;;;;;;;4.43;1.47;;;;;;;15.25;86.26;100308.41;5042451;28;20033;-68
2023/01/12 06:09:39;;;;;;;6.43;1.10;;;;;;;15.76;80.45;100320.44;5044110;28;20017;-67
2023/01/12 06:14:50;;;;;;;7.73;1.60;;;;;;;16.61;74.09;100337.25;5041625;28;20048;-68
2023/01/12 06:17:15;;;;;;;8.47;1.60;;;;;;;16.94;73.04;100315.59;5048027;28;20021;-68
2023/01/12 06:19:40;;;;;;;8.53;1.70;;;;;;;15.24;82.18;100354.06;5041803;28;20025;-68
2023/01/12 06:22:07;;;;;;;10.43;1.80;;;;;;;16.23;78.16;100330.00;5048776;28;20115;-68
2023/01/12 06:24:33;;;;;;;9.30;1.30;;;;;;;15.73;85.28;100335.50;5047452;28;20029;-68
2023/01/12 06:26:58;;;;;;;9.20;2.17;;;;;;;15.70;85.21;100310.16;5036871;28;20017;-68
2023/01/12 06:29:24;;;;;;;7.40;1.53;;;;;;;16.02;83.18;100312.44;5032549;28;20432;-68
2023/01/12 06:31:49;;;;;;;10.70;1.60;;;;;;;15.03;86.56;100335.50;5043615;28;20021;-68
2023/01/12 06:34:14;;;;;;;14.33;2.70;;;;;;;15.63;81.68;100342.06;5042785;28;20114;-68
2023/01/12 06:36:40;;;;;;;19.40;2.27;;;;;;;16.84;73.20;100330.94;5042819;28;20028;-68
2023/01/12 06:39:05;;;;;;;9.70;1.70;;;;;;;15.41;80.20;100338.50;5039807;28;20074;-68
2023/01/12 06:44:17;;;;;;;10.10;2.13;;;;;;;16.29;76.31;100349.97;5042895;28;20159;-68
2023/01/12 06:46:42;;;;;;;16.07;2.00;;;;;;;16.33;77.92;100356.84;5044799;28;20024;-68
2023/01/12 06:49:08;;;;;;;14.47;2.43;;;;;;;15.86;82.40;100330.66;5042984;28;20020;-68
2023/01/12 06:51:33;;;;;;;13.73;2.30;;;;;;;15.94;81.74;100339.13;5035611;28;20767;-68
2023/01/12 06:54:00;;;;;;;19.30;2.63;;;;;;;16.93;74.81;100335.00;5038826;28;20177;-68
2023/01/12 06:56:25;;;;;;;17.37;2.70;;;;;;;17.21;70.65;100352.25;5040155;28;20469;-68
2023/01/12 06:58:51;;;;;;;22.37;3.77;;;;;;;16.28;76.31;100335.09;5045807;28;20067;-68
2023/01/12 07:01:17;;;;;;;16.73;2.73;;;;;;;16.72;76.38;100347.31;5042407;28;20021;-68
2023/01/12 07:03:42;;;;;;;24.50;3.67;;;;;;;16.20;81.02;100363.56;5042194;28;20028;-68
2023/01/12 07:06:07;;;;;;;18.97;3.60;;;;;;;16.53;76.31;100352.53;5040139;28;20120;-68
2023/01/12 07:08:33;;;;;;;19.60;2.83;;;;;;;15.98;80.68;100367.06;5075756;28;20472;-68
2023/01/12 07:11:02;;;;;;;17.43;2.70;;;;;;;16.39;77.01;100361.88;5044420;28;20028;-68
2023/01/12 07:13:28;;;;;;;21.77;3.83;;;;;;;15.85;82.44;100371.09;5043414;28;20122;-68
2023/01/12 07:15:54;;;;;;;16.47;4.63;;;;;;;17.02;75.91;100347.81;5034958;28;20028;-67
2023/01/12 07:18:19;;;;;;;26.00;3.83;;;;;;;16.74;77.80;100377.97;5059668;28;20055;-68
2023/01/12 07:20:44;;;;;;;21.43;4.33;;;;;;;16.39;79.23;100355.72;5040552;28;20167;-68
2023/01/12 07:23:10;;;;;;;23.07;3.37;;;;;;;17.03;74.71;100378.53;5042223;28;20809;-68
2023/01/12 07:25:35;;;;;;;17.77;2.43;;;;;;;16.54;78.67;100375.34;5044581;28;20024;-68
2023/01/12 07:28:00;;;;;;;24.67;4.50;;;;;;;16.85;75.31;100350.28;5037374;28;20032;-68
2023/01/12 07:30:27;;;;;;;17.70;3.03;;;;;;;16.16;80.68;100372.53;5043277;28;20499;-68
2023/01/12 07:32:52;;;;;;;21.57;3.00;;;;;;;16.51;76.47;100363.13;5036777;28;20057;-68
2023/01/12 07:35:18;;;;;;;18.63;2.17;;;;;;;16.48;77.00;100370.34;5070776;28;20049;-68
2023/01/12 07:37:48;;;;;;;16.97;3.13;;;;;;;16.69;77.45;100385.25;5038341;28;20060;-68
2023/01/12 07:40:13;;;;;;;21.00;3.30;;;;;;;16.89;74.07;100384.41;5037036;28;20033;-68
2023/01/12 07:42:39;;;;;;;15.50;3.43;;;;;;;16.06;79.79;100370.25;5041882;28;20029;-68
2023/01/12 07:45:05;;;;;;;21.33;2.90;;;;;;;16.86;75.42;100402.16;5031120;28;20079;-68
2023/01/12 07:47:30;;;;;;;23.47;3.40;;;;;;;16.56;77.01;100378.78;5044831;28;20103;-68
2023/01/12 07:49:55;;;;;;;20.50;3.13;;;;;;;16.62;77.76;100392.56;5037607;28;20029;-68
2023/01/12 07:52:21;;;;;;;23.27;4.03;;;;;;;17.06;74.05;100383.69;5036799;28;20134;-69
2023/01/12 07:54:46;;;;;;;27.30;4.30;;;;;;;16.84;76.49;100404.84;5040938;28;20538;-68
2023/01/12 07:57:11;;;;;;;21.83;3.93;;;;;;;17.89;68.80;100388.75;5069994;28;20021;-69
2023/01/12 07:59:37;;;;;;;25.07;3.57;;;;;;;18.03;68.54;100404.84;5067917;28;20028;-68
2023/01/12 08:02:03;;;;;;;27.07;3.73;;;;;;;16.65;74.23;100404.78;5044968;28;20064;-68
2023/01/12 08:04:29;;;;;;;27.30;3.53;;;;;;;16.93;72.07;100414.19;5034191;28;20718;-69
2023/01/12 08:06:54;;;;;;;18.07;3.23;;;;;;;17.46;70.95;100408.31;5038799;28;20029;-68
2023/01/12 08:09:19;;;;;;;26.90;3.97;;;;;;;17.24;72.97;100419.00;5062538;28;20496;-68
2023/01/12 08:11:45;;;;;;;29.37;4.03;;;;;;;17.12;73.01;100430.94;5055098;28;20025;-68
2023/01/12 08:14:21;;;;;;;14.63;2.90;;;;;;;16.48;78.93;100438.91;5045912;28;20116;-68
2023/01/12 08:16:48;;;;;;;26.93;3.60;;;;;;;16.92;73.64;100423.03;5073669;28;20040;-68
2023/01/12 08:19:21;;;;;;;23.17;3.13;;;;;;;16.99;70.77;100419.19;5035869;28;20086;-68
2023/01/12 08:21:56;;;;;;;21.13;4.17;;;;;;;17.00;75.33;100426.19;5050356;28;20419;-68
2023/01/12 08:24:28;;;;;;;23.00;3.27;;;;;;;16.47;76.49;100422.22;5046267;28;20024;-68
2023/01/12 08:26:56;;;;;;;21.07;3.37;;;;;;;17.37;72.02;100429.84;5047924;28;20344;-68
2023/01/12 08:29:30;;;;;;;27.07;3.97;;;;;;;17.23;72.58;100432.28;5046103;28;20089;-68
2023/01/12 08:32:03;;;;;;;29.30;5.13;;;;;;;17.51;71.67;100429.22;5035369;28;20448;-68
2023/01/12 08:34:29;;;;;;;29.92;3.45;;;;;;;16.28;80.98;100427.41;5043196;28;20025;-69
2023/01/12 08:36:57;;;;;;;33.07;4.90;;;;;;;16.69;79.37;100453.88;5071323;28;20037;-69
2023/01/12 08:39:22;;;;;;;17.40;3.40;;;;;;;16.16;82.17;100428.75;5044296;28;20021;-68
2023/01/12 08:41:48;;;;;;;30.70;3.57;;;;;;;16.34;82.33;100432.41;5047099;28;20037;-68
2023/01/12 08:44:14;;;;;;;25.17;4.00;;;;;;;17.22;76.91;100449.88;5044078;28;21020;-68
2023/01/12 08:46:48;;;;;;;24.10;3.30;;;;;;;16.34;83.48;100439.47;5045976;28;20037;-68
2023/01/12 08:49:16;;;;;;;25.27;3.97;;;;;;;17.26;75.99;100447.97;5046032;28;20035;-68
2023/01/12 08:51:41;;;;;;;27.43;4.27;;;;;;;16.18;85.16;100484.03;5047858;28;20029;-68
2023/01/12 08:54:09;;;;;;;40.80;4.50;;;;;;;17.51;74.35;100442.44;5045575;28;20087;-69
2023/01/12 08:56:35;;;;;;;34.23;4.57;;;;;;;16.58;75.48;100450.78;5048308;28;20037;-68
2023/01/12 08:59:01;;;;;;;30.57;4.23;;;;;;;17.33;74.45;100448.56;5040469;28;20086;-68
2023/01/12 09:01:27;;;;;;;32.03;5.10;;;;;;;17.17;71.48;100454.50;5044596;28;20564;-68
2023/01/12 09:03:54;;;;;;;36.33;5.67;;;;;;;18.19;68.42;100457.00;5041782;28;20028;-69
2023/01/12 09:06:23;;;;;;;37.70;4.93;;;;;;;17.13;73.09;100437.06;5042282;28;20138;-68
2023/01/12 09:08:55;;;;;;;40.37;5.07;;;;;;;17.28;76.44;100461.94;5046913;28;20024;-68
2023/01/12 09:11:23;;;;;;;30.13;4.63;;;;;;;16.66;74.69;100459.25;5046713;28;20036;-69
2023/01/12 09:13:49;;;;;;;35.73;5.47;;;;;;;17.23;74.18;100464.81;5049485;28;20104;-68
2023/01/12 09:16:16;;;;;;;30.83;5.97;;;;;;;16.42;75.41;100477.81;5038425;28;20031;-68
2023/01/12 09:18:42;;;;;;;36.73;5.63;;;;;;;17.26;74.75;100474.38;5037243;28;20033;-68
2023/01/12 09:21:13;;;;;;;41.50;5.20;;;;;;;16.69;77.13;100479.38;5039305;28;20021;-69
2023/01/12 09:23:39;;;;;;;40.07;4.53;;;;;;;17.94;68.75;100476.66;5079882;28;20029;-68
2023/01/12 09:26:10;;;;;;;48.87;6.47;;;;;;;17.72;67.16;100482.91;5048156;28;20393;-69
2023/01/12 09:28:36;;;;;;;33.90;5.20;;;;;;;17.26;71.95;100479.66;5048296;28;20029;-69
2023/01/12 09:31:10;;;;;;;39.60;5.17;;;;;;;17.87;69.86;100462.81;5080633;28;20125;-69
2023/01/12 09:33:37;;;;;;;25.70;4.23;;;;;;;16.36;77.06;100487.75;5048217;28;20560;-68
2023/01/12 09:36:08;;;;;;;44.90;6.57;;;;;;;16.37;76.95;100500.88;5048591;28;20404;-68
2023/01/12 09:38:35;;;;;;;28.87;3.87;;;;;;;17.29;73.89;100511.22;5047665;28;20032;-69
2023/01/12 09:47:31;;;;;;;36.33;4.57;;;;;;;17.98;71.51;100523.19;5048780;28;20121;-68
2023/01/12 09:50:06;;;;;;;25.77;4.00;;;;;;;16.70;79.52;100524.19;5045419;28;20055;-69
2023/01/12 09:52:49;;;;;;;25.73;3.93;;;;;;;18.24;71.17;100527.25;5041838;28;20306;-68
2023/01/12 09:55:21;;;;;;;32.00;4.23;;;;;;;17.44;72.04;100529.03;5046559;28;20060;-69
2023/01/12 09:58:20;;;;;;;32.63;3.57;;;;;;;17.14;77.56;100544.41;5039051;28;20106;-68
2023/01/12 10:00:50;;;;;;;34.27;3.90;;;;;;;16.84;76.09;100543.88;5046132;28;20025;-68
2023/01/12 10:03:30;;;;;;;31.63;5.60;;;;;;;18.20;69.28;100536.25;5048682;28;20020;-68
2023/01/12 10:06:01;;;;;;;27.43;4.93;;;;;;;17.28;77.08;100555.28;5043838;28;20464;-68
2023/01/12 10:09:16;;;;;;;22.07;4.20;;;;;;;16.98;78.92;100554.78;5039520;28;20477;-68
2023/01/12 10:11:48;;;;;;;27.17;3.90;;;;;;;17.31;75.59;100541.09;4971360;28;20041;-69
2023/01/12 10:14:32;;;;;;;31.20;5.40;;;;;;;17.69;73.28;100535.88;4986894;28;20088;-69
2023/01/12 10:16:57;;;;;;;25.50;3.37;;;;;;;17.00;75.42;100552.91;5030549;28;20033;-69
2023/01/12 10:19:29;;;;;;;31.57;5.00;;;;;;;18.10;71.38;100535.84;5048003;28;20037;-69
2023/01/12 10:21:55;;;;;;;31.13;4.63;;;;;;;17.37;74.59;100551.38;5042981;28;20228;-69
2023/01/12 10:24:23;;;;;;;26.77;4.20;;;;;;;17.94;72.38;100550.69;5027931;28;20022;-69
2023/01/12 10:27:12;;;;;;;25.87;3.23;;;;;;;17.63;71.29;100536.19;5028052;28;20053;-68
2023/01/12 10:29:38;;;;;;;25.27;4.10;;;;;;;17.96;70.44;100544.41;5040268;28;20236;-69
2023/01/12 10:32:04;;;;;;;27.70;4.10;;;;;;;17.98;70.43;100546.97;5042270;28;20363;-68
2023/01/12 10:34:48;;;;;;;24.30;4.30;;;;;;;17.20;76.92;100545.94;5042187;28;20041;-69
2023/01/12 10:37:13;;;;;;;24.93;4.17;;;;;;;16.90;73.75;100568.28;5049278;28;20103;-70
2023/01/12 10:39:39;;;;;;;26.40;3.93;;;;;;;17.42;74.07;100541.47;5050858;28;20124;-69
2023/01/12 10:45:14;;;;;;;29.30;4.10;;;;;;;17.79;72.99;100547.78;5053422;28;20093;-69
2023/01/12 10:47:41;;;;;;;24.57;3.20;;;;;;;17.22;75.54;100552.03;5038876;28;20500;-69
2023/01/12 10:50:27;;;;;;;21.13;4.97;;;;;;;17.52;70.66;100559.59;5041800;28;20092;-68
2023/01/12 10:53:14;;;;;;;42.60;5.47;;;;;;;18.00;69.90;100554.84;5041987;28;20767;-69
2023/01/12 10:55:41;;;;;;;32.53;4.10;;;;;;;17.50;72.37;100541.13;5040046;28;20032;-69
2023/01/12 10:58:24;;;;;;;24.00;3.50;;;;;;;16.91;78.65;100542.72;5041698;28;20029;-69
2023/01/12 11:00:51;;;;;;;20.77;3.65;;;;;;;17.24;72.07;100542.25;5038174;28;20028;-69
2023/01/12 11:03:39;;;;;;;25.13;3.53;;;;;;;17.32;72.86;100537.50;5048997;28;20025;-69
2023/01/12 11:06:27;;;;;;;32.30;3.83;;;;;;;17.30;72.93;100534.06;5042880;28;20057;-69
2023/01/12 11:08:54;;;;;;;24.13;3.37;;;;;;;17.55;72.86;100533.00;5032539;28;20030;-69
2023/01/12 11:11:28;;;;;;;29.77;3.50;;;;;;;16.44;80.21;100544.56;5034655;28;20029;-68
2023/01/12 11:13:56;;;;;;;23.93;5.10;;;;;;;17.16;75.83;100544.34;5038810;28;20078;-69
2023/01/12 11:16:25;;;;;;;26.33;3.83;;;;;;;16.95;76.79;100542.56;5031528;28;20068;-68
2023/01/12 11:19:14;;;;;;;24.97;4.37;;;;;;;17.91;73.77;100532.28;5030704;28;20142;-69
2023/01/12 11:21:45;;;;;;;29.63;5.37;;;;;;;16.92;79.75;100529.47;5061298;28;20198;-69
2023/01/12 11:24:18;;;;;;;31.50;3.87;;;;;;;18.11;68.58;100526.13;5041109;28;20033;-69
2023/01/12 11:26:56;;;;;;;25.70;3.47;;;;;;;18.04;68.30;100525.56;5048472;28;20033;-68
2023/01/12 11:29:49;;;;;;;36.13;4.47;;;;;;;17.60;72.09;100528.41;5046300;28;20025;-68
2023/01/12 11:32:30;;;;;;;25.52;3.28;;;;;;;17.62;73.55;100534.44;5049491;28;20719;-68
2023/01/12 11:35:18;;;;;;;34.00;4.00;;;;;;;17.94;70.54;100518.97;5051235;28;20060;-68
2023/01/12 11:37:45;;;;;;;30.03;4.63;;;;;;;17.42;73.55;100522.09;5044401;28;20465;-68
2023/01/12 11:40:36;;;;;;;32.63;4.33;;;;;;;17.67;74.63;100521.91;5049783;28;20087;-69
2023/01/12 11:43:50;;;;;;;34.43;4.87;;;;;;;17.66;74.78;100529.91;5044154;28;20412;-68
2023/01/12 11:46:21;;;;;;;28.93;4.03;;;;;;;17.16;74.03;100536.44;5047894;28;20025;-68
2023/01/12 11:48:53;;;;;;;30.97;4.30;;;;;;;17.22;75.73;100525.63;5050377;28;20442;-68
2023/01/12 11:51:18;;;;;;;29.37;4.47;;;;;;;18.30;71.50;100520.84;5042280;28;20091;-69
2023/01/12 11:53:44;;;;;;;25.07;3.93;;;;;;;17.08;73.73;100513.00;5048192;28;20072;-69
2023/01/12 11:56:26;;;;;;;26.83;4.07;;;;;;;17.39;75.16;100503.75;5046637;28;20031;-68
2023/01/12 11:59:32;;;;;;;31.33;4.35;;;;;;;17.67;73.15;100506.03;5049437;28;20033;-68
2023/01/12 12:01:58;;;;;;;29.03;3.57;;;;;;;16.37;79.86;100510.56;5022996;28;20437;-69
2023/01/12 12:04:45;;;;;;;25.93;4.53;;;;;;;16.91;79.65;100511.06;5046108;28;20120;-68
2023/01/12 12:07:29;;;;;;;27.07;4.63;;;;;;;17.04;77.73;100512.28;5030754;28;20021;-68
2023/01/12 12:10:01;;;;;;;32.00;4.03;;;;;;;17.70;73.22;100495.31;5040910;28;20033;-69
2023/01/12 12:12:47;;;;;;;22.23;3.70;;;;;;;17.85;71.65;100498.22;5048233;28;20380;-69
2023/01/12 12:15:28;;;;;;;20.10;3.77;;;;;;;17.29;74.51;100501.50;5040767;28;20061;-69
2023/01/12 12:18:02;;;;;;;21.43;2.63;;;;;;;16.68;77.31;100494.38;5046106;28;20017;-69